createdAt,value
2019-04-29T00:00:11.578Z,18.11
2019-04-29T00:05:14.072Z,20.34
2019-04-29T00:10:16.583Z,17.85
2019-04-29T00:15:19.154Z,17.90
2019-04-29T00:20:21.741Z,17.76
2019-04-29T00:25:24.443Z,19.13
2019-04-29T00:30:26.882Z,19.61
2019-04-29T00:35:29.689Z,17.81
2019-04-29T00:40:32.165Z,17.84
2019-04-29T00:45:34.679Z,18.04
2019-04-29T00:50:37.109Z,20.50
2019-04-29T00:55:40.224Z,17.90
2019-04-29T01:00:42.721Z,17.82
2019-04-29T01:05:45.747Z,17.94
2019-04-29T01:10:48.229Z,21.25
2019-04-29T01:15:50.740Z,19.81
2019-04-29T01:20:53.268Z,19.41
2019-04-29T01:25:56.021Z,19.52
2019-04-29T01:30:58.881Z,18.60
2019-04-29T01:36:01.455Z,18.89
2019-04-29T01:41:03.956Z,19.31
2019-04-29T01:46:07.148Z,21.15
2019-04-29T01:51:10.190Z,17.57
2019-04-29T01:56:13.942Z,19.15
2019-04-29T02:01:16.423Z,19.22
2019-04-29T02:06:18.963Z,17.53
2019-04-29T02:11:21.731Z,19.65
2019-04-29T02:16:24.303Z,17.98
2019-04-29T02:21:26.731Z,20.58
2019-04-29T02:26:29.611Z,19.04
2019-04-29T02:31:32.293Z,18.47
2019-04-29T02:36:34.837Z,19.27
2019-04-29T02:41:37.408Z,19.36
2019-04-29T02:46:40.316Z,19.89
2019-04-29T02:51:42.784Z,17.84
2019-04-29T02:56:45.478Z,18.26
2019-04-29T03:01:47.867Z,19.37
2019-04-29T03:06:50.397Z,17.77
2019-04-29T03:11:52.917Z,18.04
2019-04-29T03:16:55.515Z,18.95
2019-04-29T03:21:57.903Z,19.31
2019-04-29T03:27:00.394Z,18.43
2019-04-29T03:32:02.826Z,20.03
2019-04-29T03:37:05.320Z,19.53
2019-04-29T03:42:07.864Z,17.13
2019-04-29T03:47:10.492Z,18.53
2019-04-29T03:52:13.130Z,20.50
2019-04-29T03:57:15.672Z,20.66
2019-04-29T04:02:18.113Z,18.72
2019-04-29T04:07:20.654Z,17.55
2019-04-29T04:12:23.333Z,18.79
2019-04-29T04:17:25.919Z,18.88
2019-04-29T04:22:28.368Z,16.81
2019-04-29T04:27:30.778Z,18.38
2019-04-29T04:32:33.105Z,17.35
2019-04-29T04:37:35.591Z,22.95
2019-04-29T04:42:37.984Z,17.69
2019-04-29T04:47:40.518Z,17.20
2019-04-29T04:52:42.937Z,16.98
2019-04-29T04:57:45.443Z,14.97
2019-04-29T05:02:48.059Z,19.89
2019-04-29T05:07:50.886Z,17.33
2019-04-29T05:12:53.828Z,20.84
2019-04-29T05:17:56.616Z,20.50
2019-04-29T05:22:59.495Z,17.15
2019-04-29T05:28:02.029Z,17.35
2019-04-29T05:33:04.908Z,18.30
2019-04-29T05:38:07.485Z,16.33
2019-04-29T05:43:10.009Z,17.92
2019-04-29T05:48:12.553Z,19.28
2019-04-29T05:53:16.127Z,20.10
2019-04-29T05:58:17.224Z,21.79
2019-04-29T06:03:19.729Z,18.56
2019-04-29T06:08:22.586Z,17.65
2019-04-29T06:13:24.941Z,17.79
2019-04-29T06:18:27.657Z,19.53
2019-04-29T06:23:30.124Z,18.50
2019-04-29T06:28:32.986Z,16.36
2019-04-29T06:33:35.382Z,17.45
2019-04-29T06:38:37.874Z,16.95
2019-04-29T06:43:40.255Z,14.00
2019-04-29T06:48:42.901Z,17.44
2019-04-29T06:53:47.778Z,15.25
2019-04-29T06:58:49.133Z,12.91
2019-04-29T07:03:49.800Z,13.50
2019-04-29T07:08:52.549Z,14.13
2019-04-29T07:13:57.506Z,14.84
2019-04-29T07:18:57.368Z,15.80
2019-04-29T07:23:59.806Z,13.51
2019-04-29T07:29:02.272Z,15.08
2019-04-29T07:34:08.143Z,13.21
2019-04-29T07:39:06.871Z,14.32
2019-04-29T07:44:09.329Z,13.23
2019-04-29T07:49:12.832Z,13.95
2019-04-29T07:54:15.816Z,15.41
2019-04-29T07:59:16.298Z,13.95
2019-04-29T08:04:19.142Z,14.35
2019-04-29T08:09:21.737Z,12.63
2019-04-29T08:14:24.248Z,16.46
2019-04-29T08:19:29.471Z,13.37
2019-04-29T08:24:29.449Z,19.01
2019-04-29T08:29:35.681Z,14.06
2019-04-29T08:34:33.993Z,13.14
2019-04-29T08:39:36.583Z,16.89
2019-04-29T08:44:39.139Z,16.36
2019-04-29T08:49:41.714Z,13.24
2019-04-29T08:54:44.126Z,16.52
2019-04-29T08:59:46.670Z,13.75
2019-04-29T09:04:53.719Z,13.59
2019-04-29T09:09:51.586Z,14.23
2019-04-29T09:14:54.145Z,13.81
2019-04-29T09:19:56.804Z,13.10
2019-04-29T09:24:59.335Z,12.74
2019-04-29T09:30:02.287Z,13.45
2019-04-29T09:35:04.774Z,14.07
2019-04-29T09:40:07.506Z,15.29
2019-04-29T09:45:10.231Z,14.91
2019-04-29T09:50:12.879Z,13.73
2019-04-29T09:55:15.490Z,11.87
2019-04-29T10:00:18.348Z,12.24
2019-04-29T10:05:20.927Z,13.63
2019-04-29T10:10:23.565Z,15.52
2019-04-29T10:15:26.109Z,12.38
2019-04-29T10:20:28.767Z,12.18
2019-04-29T10:25:31.710Z,16.53
2019-04-29T10:30:34.232Z,14.08
2019-04-29T10:35:40.736Z,11.45
2019-04-29T10:40:38.978Z,15.21
2019-04-29T10:45:41.588Z,11.93
2019-04-29T10:50:47.194Z,12.25
2019-04-29T10:55:46.165Z,14.83
2019-04-29T11:00:52.681Z,11.15
2019-04-29T11:06:00.429Z,13.45
2019-04-29T11:11:01.869Z,11.53
2019-04-29T11:15:55.075Z,14.22
2019-04-29T11:20:58.004Z,15.86
2019-04-29T11:26:01.843Z,14.03
2019-04-29T11:31:04.330Z,12.16
2019-04-29T11:36:06.872Z,15.31
2019-04-29T11:41:12.261Z,14.79
2019-04-29T11:46:14.404Z,14.08
2019-04-29T11:51:13.805Z,13.37
2019-04-29T11:56:16.534Z,14.54
2019-04-29T12:01:19.204Z,14.90
2019-04-29T12:06:22.018Z,13.35
2019-04-29T12:11:28.154Z,12.10
2019-04-29T12:16:27.012Z,11.40
2019-04-29T12:21:29.553Z,12.55
2019-04-29T12:26:35.645Z,11.21
2019-04-29T12:31:34.289Z,13.27
2019-04-29T12:36:54.764Z,10.76
2019-04-29T12:41:48.443Z,11.35
2019-04-29T12:46:41.829Z,11.34
2019-04-29T12:51:44.422Z,10.30
2019-04-29T12:56:47.979Z,11.44
2019-04-29T13:01:52.118Z,9.99
2019-04-29T13:06:51.186Z,11.05
2019-04-29T13:12:11.129Z,11.76
2019-04-29T13:16:57.099Z,10.48
2019-04-29T13:48:07.573Z,9.62
2019-04-29T13:54:06.625Z,10.64
2019-04-29T13:58:08.135Z,9.40
2019-04-29T14:03:11.742Z,8.72
2019-04-29T16:35:12.276Z,11.18
2019-04-29T16:40:14.993Z,9.78
2019-04-29T18:10:24.591Z,13.29
